Ana Sayfa
METAR-TAF:

METAR-TAF

Havaalanları :

Marshfield, Massachusetts, Amerika Birleşik Devletleri

Enlem: 42-05-54N, Boylam: 070-40-20W, yükseklik: 3 m

Güncel hava durumu gözlemi

Rapor saat 01:15 UTC de 16 dakika önce yapıldı.
Rüzgar batı/kuzeybatıdan 9 kt ve 17 kt'a kadar ani rüzgarlar, batı/güneybatı ve kuzeybatı arasında değişken
Sıcaklık 2°C
Nem 44%
Basınç 1008 hPa
Görüş mesafesi: 16.1 km
Açık gökyüzü

METAR: KGHG 200115Z AUTO 29009G17KT 240V320 10SM CLR 02/M09 A2978 RMK AO2

Saat: 20:31 (01:31 UTC)


TAF: eksik

4.000'den fazla havaalanı için hava durumu gözlemleri ve tahminleri (METAR ve TAF raporları).

Kullanılabilir istasyonlar harita üzerinde sarı ve kırmızı noktalarla gösterilir.

İstasyonun adını görmek için fareyi noktanın üzerinde gezdirin.

Sonrasında hava gözlem ve tahminlerini görmek için tıklayın.

Haritayı değiştirmek için: yaklaştırmak için siyah artı işaretli yeşil düğmeye ve uzaklaştırmak için de eksi işaretli düğmeye hızla tıklayın; bitişik haritalar için yeşil okları kullanın.


METAR-TAF: